Time;durP1;ratioP1;P1;durP2;ratioP2;P2;SDS_P1;SDS_P2;PMS_P1;PMS_P2;Temp;Humidity;BMP_temperature;BMP_pressure;BME280_temperature;BME280_humidity;BME280_pressure;Samples;Min_cycle;Max_cycle;Signal;HPM_P1;HPM_P2
2022/04/20 00:01:07;;;;;;;9.67;9.37;;;6.60;99.90;;;;;;5107559;28;20225;-82
2022/04/20 00:03:38;;;;;;;10.00;9.70;;;6.60;99.90;;;;;;5107331;28;20234;-82
2022/04/20 00:06:07;;;;;;;9.70;9.40;;;6.60;99.90;;;;;;5108032;28;20347;-82
2022/04/20 00:08:45;;;;;;;9.80;9.50;;;6.50;99.90;;;;;;5108161;28;20229;-82
2022/04/20 00:11:14;;;;;;;9.90;9.60;;;6.50;99.90;;;;;;5108941;28;20225;-82
2022/04/20 00:13:43;;;;;;;10.00;9.70;;;6.40;99.90;;;;;;5107047;28;20280;-82
2022/04/20 00:16:13;;;;;;;10.03;9.73;;;6.40;99.90;;;;;;5108142;28;20259;-82
2022/04/20 00:18:43;;;;;;;9.80;9.50;;;6.30;99.90;;;;;;5107236;28;20222;-82
2022/04/20 00:21:12;;;;;;;10.17;9.87;;;6.30;99.90;;;;;;5107923;28;20225;-82
2022/04/20 00:26:28;;;;;;;9.80;9.50;;;6.10;99.90;;;;;;5106769;28;20252;-82
2022/04/20 00:28:58;;;;;;;10.00;9.70;;;6.10;99.90;;;;;;5107353;28;20279;-82
2022/04/20 00:31:27;;;;;;;9.80;9.50;;;6.00;99.90;;;;;;5107028;28;20218;-82
2022/04/20 00:33:57;;;;;;;9.90;9.60;;;5.90;99.90;;;;;;5108942;28;20238;-82
2022/04/20 00:36:26;;;;;;;9.70;9.40;;;5.80;99.90;;;;;;5108753;28;20260;-82
2022/04/20 00:39:04;;;;;;;10.03;9.73;;;5.70;99.90;;;;;;5107047;28;20232;-82
2022/04/20 00:41:35;;;;;;;9.37;9.07;;;5.60;99.90;;;;;;5106609;28;20233;-82
2022/04/20 00:44:04;;;;;;;9.80;9.50;;;5.50;99.90;;;;;;5105814;28;20245;-82
2022/04/20 00:46:33;;;;;;;10.00;9.70;;;5.50;99.90;;;;;;5106689;28;20233;-82
2022/04/20 00:49:02;;;;;;;9.80;9.50;;;5.50;99.90;;;;;;5114460;28;20230;-82
2022/04/20 00:51:31;;;;;;;9.60;9.30;;;5.40;99.90;;;;;;5110355;28;20226;-82
2022/04/20 00:54:11;;;;;;;9.43;9.13;;;5.40;99.90;;;;;;5108805;28;20332;-82
2022/04/20 00:56:40;;;;;;;9.60;9.30;;;5.30;99.90;;;;;;5108128;28;20297;-83
2022/04/20 00:59:10;;;;;;;9.90;9.60;;;5.30;99.90;;;;;;5107797;28;20233;-82
2022/04/20 01:01:38;;;;;;;9.97;9.67;;;5.30;99.90;;;;;;5105804;28;20221;-82
2022/04/20 01:04:08;;;;;;;9.63;9.33;;;5.30;99.90;;;;;;5105541;28;20241;-82
2022/04/20 01:06:37;;;;;;;9.43;9.13;;;5.30;99.90;;;;;;5106027;28;20282;-82
2022/04/20 01:09:15;;;;;;;9.80;9.50;;;5.20;99.90;;;;;;5105386;28;20232;-82
2022/04/20 01:11:45;;;;;;;9.80;9.50;;;5.20;99.90;;;;;;5104779;28;20279;-82
2022/04/20 01:14:16;;;;;;;9.80;9.50;;;5.20;99.90;;;;;;5104710;28;20307;-82
2022/04/20 01:16:44;;;;;;;9.77;9.47;;;5.20;99.90;;;;;;5104710;28;20237;-81
2022/04/20 01:19:19;;;;;;;10.00;9.70;;;5.10;99.90;;;;;;5104315;28;20263;-82
2022/04/20 01:24:41;;;;;;;9.87;9.57;;;5.00;99.90;;;;;;5104177;28;20319;-81
2022/04/20 01:27:10;;;;;;;10.00;9.70;;;5.00;99.90;;;;;;5103855;28;20288;-82
2022/04/20 01:29:39;;;;;;;9.50;9.20;;;4.90;99.90;;;;;;5103655;28;20298;-82
2022/04/20 01:32:09;;;;;;;9.80;9.50;;;4.80;99.90;;;;;;5104132;28;20229;-81
2022/04/20 01:34:38;;;;;;;10.00;9.70;;;4.80;99.90;;;;;;5118471;28;20229;-81
2022/04/20 01:37:10;;;;;;;9.83;9.53;;;4.80;99.90;;;;;;5112980;27;20226;-82
2022/04/20 01:39:37;;;;;;;9.97;9.67;;;4.70;99.90;;;;;;5107572;28;20272;-82
2022/04/20 01:42:08;;;;;;;10.20;9.90;;;4.70;99.90;;;;;;5106234;28;20225;-82
2022/04/20 01:44:36;;;;;;;10.10;9.80;;;4.60;99.90;;;;;;5105772;28;20230;-81
2022/04/20 01:47:05;;;;;;;10.10;9.80;;;4.60;99.90;;;;;;5106141;28;20229;-81
2022/04/20 01:49:34;;;;;;;9.80;9.50;;;4.50;99.90;;;;;;5104018;28;20228;-82
2022/04/20 01:52:04;;;;;;;10.00;9.70;;;4.50;99.90;;;;;;5103973;28;20234;-82
2022/04/20 01:54:52;;;;;;;9.90;9.60;;;4.40;99.90;;;;;;5102890;28;20241;-82
2022/04/20 01:57:20;;;;;;;9.87;9.57;;;4.30;99.90;;;;;;5103010;28;20218;-82
2022/04/20 01:59:50;;;;;;;10.00;9.70;;;4.30;99.90;;;;;;5103642;28;20229;-82
2022/04/20 02:02:38;;;;;;;9.90;9.60;;;4.20;99.90;;;;;;5102974;28;20234;-82
2022/04/20 02:05:09;;;;;;;9.90;9.60;;;4.20;99.90;;;;;;5103500;28;20229;-82
2022/04/20 02:07:37;;;;;;;9.57;9.27;;;4.10;99.90;;;;;;5103673;28;20238;-82
2022/04/20 02:10:15;;;;;;;9.80;9.50;;;4.10;99.90;;;;;;5104370;28;20298;-81
2022/04/20 02:12:44;;;;;;;9.83;9.53;;;4.10;99.90;;;;;;5111853;28;20229;-81
2022/04/20 02:15:13;;;;;;;10.10;9.80;;;4.00;99.90;;;;;;5104648;28;20233;-82
2022/04/20 02:17:42;;;;;;;10.10;9.80;;;3.90;99.90;;;;;;5106179;28;20286;-82
2022/04/20 02:20:12;;;;;;;10.10;9.80;;;3.80;99.90;;;;;;5104395;28;20217;-81
2022/04/20 02:22:42;;;;;;;9.90;9.60;;;3.70;99.90;;;;;;5103824;28;20320;-81
2022/04/20 02:25:14;;;;;;;10.40;10.10;;;3.70;99.90;;;;;;5104816;28;20241;-82
2022/04/20 02:27:41;;;;;;;9.93;9.63;;;3.70;99.90;;;;;;5114593;28;20229;-81
2022/04/20 02:30:10;;;;;;;9.80;9.50;;;3.60;99.90;;;;;;5118654;28;20256;-82
2022/04/20 02:32:39;;;;;;;9.80;9.50;;;3.60;99.90;;;;;;5108380;28;20244;-81
2022/04/20 02:35:08;;;;;;;9.90;9.60;;;3.60;99.90;;;;;;5105823;28;20268;-81
2022/04/20 02:37:39;;;;;;;10.10;9.80;;;3.60;99.90;;;;;;5109452;28;20236;-81
2022/04/20 02:40:08;;;;;;;9.83;9.53;;;3.60;99.90;;;;;;5114879;28;20285;-81
2022/04/20 02:42:39;;;;;;;10.10;9.80;;;3.50;99.90;;;;;;5118686;27;20214;-81
2022/04/20 02:45:08;;;;;;;10.00;9.70;;;3.50;99.90;;;;;;5118651;27;20225;-81
2022/04/20 02:47:35;;;;;;;10.03;9.73;;;3.50;99.90;;;;;;5118964;27;20213;-82
2022/04/20 02:50:05;;;;;;;10.10;9.80;;;3.40;99.90;;;;;;5118749;28;20225;-81
2022/04/20 02:52:34;;;;;;;10.00;9.70;;;3.40;99.90;;;;;;5113699;28;20233;-81
2022/04/20 02:55:05;;;;;;;10.37;10.07;;;3.40;99.90;;;;;;5106826;28;20233;-81
2022/04/20 02:57:34;;;;;;;9.80;9.50;;;3.40;99.90;;;;;;5104397;28;20229;-81
2022/04/20 03:00:13;;;;;;;9.80;9.50;;;3.40;99.90;;;;;;5103677;28;20236;-81
2022/04/20 03:02:41;;;;;;;9.53;9.23;;;3.30;99.90;;;;;;5103615;28;20234;-81
2022/04/20 03:05:11;;;;;;;9.40;9.10;;;3.30;99.90;;;;;;5104034;28;20291;-81
2022/04/20 03:07:40;;;;;;;9.73;9.43;;;3.20;99.90;;;;;;5102952;28;20233;-81
2022/04/20 03:10:09;;;;;;;9.80;9.50;;;3.20;99.90;;;;;;5102506;28;20230;-82
2022/04/20 03:12:39;;;;;;;9.70;9.40;;;3.20;99.90;;;;;;5103077;28;20243;-81
2022/04/20 03:15:18;;;;;;;9.80;9.50;;;3.20;99.90;;;;;;5103033;28;20697;-81
2022/04/20 03:17:49;;;;;;;9.60;9.30;;;3.10;99.90;;;;;;5102847;28;20236;-82
2022/04/20 03:20:17;;;;;;;10.07;9.77;;;3.10;99.90;;;;;;5102571;28;20236;-82
2022/04/20 03:22:47;;;;;;;9.83;9.53;;;3.10;99.90;;;;;;5102479;28;20244;-81
2022/04/20 03:25:16;;;;;;;10.07;9.77;;;3.10;99.90;;;;;;5102587;28;20233;-82
2022/04/20 03:27:46;;;;;;;9.80;9.50;;;3.00;99.90;;;;;;5102399;28;20291;-81
2022/04/20 03:30:25;;;;;;;9.73;9.43;;;3.00;99.90;;;;;;5101803;28;20299;-82
2022/04/20 03:32:54;;;;;;;9.30;9.00;;;3.00;99.90;;;;;;5102092;28;20244;-81
2022/04/20 03:35:23;;;;;;;9.60;9.30;;;3.00;99.90;;;;;;5101802;28;20240;-82
2022/04/20 03:37:52;;;;;;;10.00;9.70;;;2.90;99.90;;;;;;5102190;28;20225;-81
2022/04/20 03:40:22;;;;;;;10.00;9.70;;;2.80;99.90;;;;;;5102894;28;20252;-81
2022/04/20 03:42:52;;;;;;;10.20;9.90;;;2.70;99.90;;;;;;5102409;28;20249;-81
2022/04/20 03:45:24;;;;;;;9.93;9.63;;;2.60;99.90;;;;;;5102741;28;20243;-81
2022/04/20 03:47:51;;;;;;;9.90;9.60;;;2.60;99.90;;;;;;5104346;28;20233;-81
2022/04/20 03:50:19;;;;;;;9.73;9.43;;;2.60;99.90;;;;;;5115023;28;20217;-81
2022/04/20 03:52:49;;;;;;;9.80;9.50;;;2.50;99.90;;;;;;5113038;28;20241;-82
2022/04/20 03:55:19;;;;;;;10.03;9.73;;;2.50;99.90;;;;;;5105957;28;20299;-82
2022/04/20 03:57:48;;;;;;;10.57;10.27;;;2.40;99.90;;;;;;5104345;28;20222;-82
2022/04/20 04:00:20;;;;;;;10.10;9.80;;;2.40;99.90;;;;;;5103404;28;20233;-81
2022/04/20 04:02:50;;;;;;;10.50;10.20;;;2.40;99.90;;;;;;5102331;28;20239;-82
2022/04/20 04:05:18;;;;;;;10.90;10.60;;;2.40;99.90;;;;;;5102154;28;20225;-82
2022/04/20 04:07:46;;;;;;;10.90;10.60;;;2.40;99.90;;;;;;5102344;28;20259;-82
2022/04/20 04:10:15;;;;;;;11.00;10.70;;;2.40;99.90;;;;;;5102173;28;20817;-81
2022/04/20 04:12:45;;;;;;;11.00;10.70;;;2.30;99.90;;;;;;5102058;28;20205;-82
2022/04/20 04:15:14;;;;;;;10.63;10.33;;;2.30;99.90;;;;;;5101652;28;20230;-82
2022/04/20 04:17:44;;;;;;;10.40;10.10;;;2.20;99.90;;;;;;5103130;28;20233;-82
2022/04/20 04:20:22;;;;;;;10.50;10.20;;;2.10;99.90;;;;;;5105228;28;20304;-82
2022/04/20 04:22:52;;;;;;;10.73;10.43;;;2.10;99.90;;;;;;5105415;28;20251;-82
2022/04/20 04:25:21;;;;;;;10.67;10.37;;;2.10;99.90;;;;;;5105691;28;20225;-82
2022/04/20 04:27:50;;;;;;;10.40;10.10;;;2.10;99.90;;;;;;5108526;28;20232;-82
2022/04/20 04:30:20;;;;;;;10.47;10.17;;;2.10;99.90;;;;;;5112344;28;20306;-81
2022/04/20 04:32:51;;;;;;;10.67;10.37;;;2.20;99.90;;;;;;5108870;28;20720;-81
2022/04/20 04:35:21;;;;;;;10.60;10.30;;;2.20;99.90;;;;;;5108089;28;20233;-82
2022/04/20 04:37:49;;;;;;;10.77;10.47;;;2.20;99.90;;;;;;5107974;28;20225;-82
2022/04/20 04:40:18;;;;;;;10.57;10.27;;;2.20;99.90;;;;;;5105963;28;20242;-82
2022/04/20 04:42:47;;;;;;;10.20;9.90;;;2.10;99.90;;;;;;5106702;28;20225;-83
2022/04/20 04:50:50;;;;;;;10.80;10.50;;;2.10;99.90;;;;;;5106662;28;20198;-82
2022/04/20 04:53:21;;;;;;;10.90;10.60;;;2.20;99.90;;;;;;5126755;22;20267;-89
2022/04/20 04:55:50;;;;;;;10.57;10.27;;;2.30;99.90;;;;;;5101189;28;20321;-89
2022/04/20 04:58:19;;;;;;;10.70;10.40;;;2.40;99.90;;;;;;5112584;28;20221;-89
2022/04/20 05:00:48;;;;;;;10.90;10.60;;;2.40;99.90;;;;;;5117915;28;20226;-88
2022/04/20 05:03:18;;;;;;;11.40;11.00;;;2.50;99.90;;;;;;5101523;28;20229;-87
2022/04/20 05:05:57;;;;;;;11.13;10.83;;;2.50;99.90;;;;;;5113236;28;20260;-88
2022/04/20 05:08:25;;;;;;;11.50;11.10;;;2.50;99.90;;;;;;5107233;28;20293;-87
2022/04/20 05:10:55;;;;;;;10.77;10.47;;;2.50;99.90;;;;;;5104136;28;20229;-88
2022/04/20 05:13:24;;;;;;;11.53;11.13;;;2.50;99.90;;;;;;5102885;28;20217;-88
2022/04/20 05:15:53;;;;;;;11.20;10.90;;;2.60;99.90;;;;;;5101530;28;20233;-88
2022/04/20 05:18:27;;;;;;;11.40;11.00;;;2.60;99.90;;;;;;5101316;28;20238;-88
2022/04/20 05:21:03;;;;;;;11.67;11.27;;;2.70;99.90;;;;;;5101459;28;20240;-88
2022/04/20 05:23:32;;;;;;;11.50;11.10;;;2.70;99.90;;;;;;5101645;28;20291;-88
2022/04/20 05:26:02;;;;;;;11.43;11.03;;;2.70;99.90;;;;;;5100751;28;20244;-87
2022/04/20 05:28:31;;;;;;;11.17;10.87;;;2.70;99.90;;;;;;5100976;28;20232;-87
2022/04/20 05:31:00;;;;;;;11.20;10.90;;;2.80;99.90;;;;;;5100869;28;20230;-88
2022/04/20 05:33:30;;;;;;;11.50;11.10;;;2.80;99.90;;;;;;5099720;28;20272;-87
2022/04/20 05:36:11;;;;;;;10.87;10.57;;;2.90;99.90;;;;;;5100125;28;20233;-88
2022/04/20 05:44:12;;;;;;;10.50;10.20;;;3.10;99.90;;;;;;5100683;28;20213;-87
2022/04/20 05:46:41;;;;;;;10.60;10.30;;;3.20;99.90;;;;;;5101675;28;20240;-88
2022/04/20 05:49:11;;;;;;;11.13;10.83;;;3.30;99.90;;;;;;5100310;28;20774;-88
2022/04/20 05:51:43;;;;;;;11.13;10.83;;;3.30;99.90;;;;;;5100656;28;20240;-87
2022/04/20 05:54:12;;;;;;;11.37;10.97;;;3.40;99.90;;;;;;5100023;28;20233;-88
2022/04/20 05:56:40;;;;;;;11.00;10.70;;;3.50;99.90;;;;;;5100709;28;20221;-88
2022/04/20 05:59:08;;;;;;;11.40;11.00;;;3.70;99.90;;;;;;5099962;28;20233;-88
2022/04/20 06:01:38;;;;;;;11.33;10.93;;;3.80;99.90;;;;;;5099020;28;20287;-88
2022/04/20 06:04:08;;;;;;;11.40;11.00;;;4.00;99.90;;;;;;5098783;28;20220;-88
2022/04/20 06:09:24;;;;;;;11.07;10.77;;;4.30;99.90;;;;;;5099469;28;20236;-88
2022/04/20 06:11:54;;;;;;;11.30;11.00;;;4.50;99.90;;;;;;5099344;28;20229;-88
2022/04/20 06:14:24;;;;;;;11.10;10.80;;;4.50;99.90;;;;;;5100016;28;20221;-87
2022/04/20 06:16:54;;;;;;;11.17;10.87;;;4.70;99.90;;;;;;5101108;28;20289;-87
2022/04/20 06:24:59;;;;;;;10.87;10.57;;;5.10;99.90;;;;;;5099293;28;20232;-88
2022/04/20 06:27:36;;;;;;;11.10;10.80;;;5.30;99.90;;;;;;5100757;28;20249;-88
2022/04/20 06:30:05;;;;;;;11.00;10.70;;;5.50;99.90;;;;;;5102218;28;20252;-88
2022/04/20 06:32:37;;;;;;;10.83;10.53;;;5.60;99.90;;;;;;5102025;28;20295;-88
2022/04/20 06:35:12;;;;;;;10.70;10.40;;;5.70;99.90;;;;;;5099875;28;20237;-88
2022/04/20 06:37:43;;;;;;;11.00;10.70;;;5.80;99.90;;;;;;5099920;28;20237;-88
2022/04/20 06:43:07;;;;;;;10.80;10.50;;;6.10;99.90;;;;;;5100383;28;20238;-86
2022/04/20 06:45:35;;;;;;;11.10;10.80;;;6.10;99.90;;;;;;5119877;27;20228;-88
2022/04/20 06:48:06;;;;;;;10.83;10.53;;;6.20;99.90;;;;;;5119384;27;20233;-87
2022/04/20 06:50:45;;;;;;;10.93;10.63;;;6.20;99.90;;;;;;5119517;27;20237;-89
2022/04/20 06:58:48;;;;;;;11.10;10.80;;;6.50;99.90;;;;;;5119889;27;20194;-90
2022/04/20 07:01:19;;;;;;;11.10;10.80;;;6.70;99.90;;;;;;5119345;28;20226;-89
2022/04/20 07:03:46;;;;;;;10.87;10.57;;;6.90;99.90;;;;;;5117611;27;20222;-90
2022/04/20 07:06:15;;;;;;;10.97;10.67;;;7.00;99.90;;;;;;5117662;28;20209;-89
2022/04/20 07:08:54;;;;;;;10.80;10.50;;;7.10;99.90;;;;;;5113213;28;20271;-88
2022/04/20 07:11:22;;;;;;;11.10;10.80;;;7.20;99.90;;;;;;5117697;28;20244;-89
2022/04/20 07:13:52;;;;;;;10.63;10.33;;;7.20;99.90;;;;;;5117090;28;20236;-89
2022/04/20 07:16:22;;;;;;;10.90;10.60;;;7.30;99.90;;;;;;5111102;28;20222;-88
2022/04/20 07:18:53;;;;;;;11.10;10.80;;;7.50;99.90;;;;;;5103016;28;20228;-88
2022/04/20 07:21:22;;;;;;;10.90;10.60;;;7.70;99.90;;;;;;5102432;28;20233;-87
2022/04/20 07:29:52;;;;;;;11.13;10.83;;;8.20;99.90;;;;;;5107883;28;20224;-88
2022/04/20 07:32:30;;;;;;;11.10;10.80;;;8.30;99.90;;;;;;5106751;28;20306;-89
2022/04/20 07:35:01;;;;;;;11.20;10.90;;;8.40;99.90;;;;;;5102976;28;20237;-89
2022/04/20 07:37:29;;;;;;;11.03;10.73;;;8.40;99.90;;;;;;5100666;28;20217;-88
2022/04/20 07:40:01;;;;;;;11.40;11.10;;;8.60;99.90;;;;;;5100930;28;20233;-89
2022/04/20 07:42:29;;;;;;;11.07;10.77;;;8.70;99.90;;;;;;5099022;28;20317;-88
2022/04/20 07:44:58;;;;;;;11.20;10.90;;;8.80;99.90;;;;;;5098134;28;20233;-88
2022/04/20 07:47:29;;;;;;;11.00;10.70;;;8.90;99.90;;;;;;5099263;28;20285;-88
2022/04/20 07:52:52;;;;;;;11.53;11.13;;;9.10;99.90;;;;;;5100857;28;20234;-88
2022/04/20 07:55:30;;;;;;;11.10;10.80;;;9.30;99.90;;;;;;5103382;28;20229;-89
2022/04/20 07:58:03;;;;;;;10.60;10.30;;;9.40;99.90;;;;;;5105806;28;20229;-89
2022/04/20 08:00:38;;;;;;;10.87;10.57;;;9.50;99.90;;;;;;5104932;28;20249;-88
2022/04/20 08:05:59;;;;;;;11.00;10.70;;;9.70;99.90;;;;;;5118730;27;20268;-89
2022/04/20 08:08:27;;;;;;;11.00;10.70;;;9.60;99.90;;;;;;5107320;28;20225;-88
2022/04/20 08:16:28;;;;;;;10.43;10.13;;;10.10;99.90;;;;;;5101446;28;20222;-88
2022/04/20 08:18:57;;;;;;;10.20;9.90;;;10.30;99.90;;;;;;5101514;28;20228;-88
2022/04/20 08:21:28;;;;;;;10.40;10.10;;;10.50;99.90;;;;;;5107875;28;20233;-89
2022/04/20 08:24:34;;;;;;;10.40;10.10;;;10.60;99.90;;;;;;5117093;28;20234;-89
2022/04/20 08:27:09;;;;;;;10.23;9.93;;;10.90;99.90;;;;;;5084095;28;20233;-88
2022/04/20 08:29:48;;;;;;;10.40;10.10;;;11.10;99.90;;;;;;5104656;28;20214;-88
2022/04/20 08:32:27;;;;;;;10.13;9.83;;;11.20;99.90;;;;;;5107274;28;20264;-88
2022/04/20 08:34:55;;;;;;;10.63;10.33;;;11.40;99.90;;;;;;5104343;28;20240;-88
2022/04/20 08:37:24;;;;;;;10.70;10.40;;;11.30;99.90;;;;;;5104051;28;20324;-89
2022/04/20 08:39:56;;;;;;;10.90;10.60;;;11.50;99.90;;;;;;5103130;28;20225;-88
2022/04/20 08:42:33;;;;;;;10.60;10.30;;;11.70;99.90;;;;;;5102781;28;20316;-88
2022/04/20 08:45:10;;;;;;;10.53;10.23;;;11.90;99.90;;;;;;5102815;28;20247;-87
2022/04/20 08:47:41;;;;;;;10.60;10.30;;;11.70;99.90;;;;;;5105325;28;20233;-89
2022/04/20 08:50:11;;;;;;;10.33;10.03;;;11.70;99.90;;;;;;5103253;28;20327;-89
2022/04/20 08:52:51;;;;;;;10.63;10.33;;;11.90;99.90;;;;;;5103768;28;20224;-88
2022/04/20 08:55:26;;;;;;;10.70;10.40;;;12.00;99.90;;;;;;5103018;28;20240;-89
2022/04/20 09:00:43;;;;;;;10.80;10.50;;;12.30;99.90;;;;;;5102644;28;20232;-88
2022/04/20 09:03:21;;;;;;;10.80;10.50;;;12.20;99.90;;;;;;5101561;28;20305;-89
2022/04/20 09:05:53;;;;;;;10.80;10.50;;;12.30;99.90;;;;;;5101875;28;20247;-89
2022/04/20 09:08:24;;;;;;;10.70;10.40;;;12.20;99.90;;;;;;5100989;28;20241;-89
2022/04/20 09:10:57;;;;;;;10.77;10.47;;;12.50;99.90;;;;;;5100503;28;20229;-89
2022/04/20 09:13:47;;;;;;;11.00;10.70;;;12.40;99.90;;;;;;5100033;28;20237;-89
2022/04/20 09:16:23;;;;;;;10.87;10.57;;;12.20;99.90;;;;;;5100976;28;20268;-89
2022/04/20 09:18:53;;;;;;;11.13;10.83;;;12.40;99.90;;;;;;5100214;28;20229;-89
2022/04/20 09:21:25;;;;;;;11.17;10.87;;;12.80;99.90;;;;;;5101571;28;20253;-89
2022/04/20 09:24:11;;;;;;;11.00;10.70;;;13.40;99.90;;;;;;5099995;28;20248;-89
2022/04/20 09:26:57;;;;;;;11.00;10.70;;;13.40;99.90;;;;;;5106561;27;20275;-90
2022/04/20 09:29:44;;;;;;;11.10;10.80;;;13.50;99.90;;;;;;5120153;27;20224;-90
2022/04/20 09:35:12;;;;;;;11.03;10.73;;;14.20;99.90;;;;;;5099655;28;20245;-87
2022/04/20 09:37:41;;;;;;;11.03;10.73;;;14.10;99.90;;;;;;5099887;28;20234;-88
2022/04/20 09:40:18;;;;;;;11.20;10.90;;;14.30;99.90;;;;;;5098813;28;20237;-88
2022/04/20 09:43:06;;;;;;;10.90;10.60;;;14.70;99.90;;;;;;5098603;28;20233;-88
2022/04/20 09:45:44;;;;;;;11.27;10.97;;;15.10;99.90;;;;;;5099202;28;20233;-88
2022/04/20 09:54:06;;;;;;;11.10;10.80;;;14.90;99.90;;;;;;5097656;28;20314;-89
2022/04/20 09:56:34;;;;;;;10.93;10.63;;;15.10;99.90;;;;;;5099186;28;20236;-89
2022/04/20 09:59:20;;;;;;;10.83;10.53;;;14.60;99.90;;;;;;5099216;28;20229;-89
2022/04/20 10:02:29;;;;;;;11.10;10.80;;;14.80;99.90;;;;;;5100956;28;20267;-88
2022/04/20 10:05:08;;;;;;;10.90;10.60;;;14.80;99.90;;;;;;5100086;28;20252;-88
2022/04/20 10:07:42;;;;;;;10.73;10.43;;;15.20;99.90;;;;;;5100742;28;20316;-88
2022/04/20 10:13:01;;;;;;;10.90;10.60;;;15.10;99.00;;;;;;5118719;27;20210;-89
2022/04/20 10:18:31;;;;;;;11.15;10.85;;;15.60;99.70;;;;;;5119232;27;20252;-89
2022/04/20 10:21:06;;;;;;;10.90;10.60;;;15.90;98.30;;;;;;5118766;27;20249;-89
2022/04/20 10:23:43;;;;;;;10.80;10.50;;;16.20;99.90;;;;;;5117335;27;20225;-89
2022/04/20 10:26:18;;;;;;;11.00;10.70;;;16.70;99.90;;;;;;5107163;28;20221;-89
2022/04/20 10:29:16;;;;;;;11.48;11.07;;;16.80;97.40;;;;;;5102496;28;20276;-87
2022/04/20 10:32:05;;;;;;;11.07;10.77;;;16.90;96.70;;;;;;5100307;28;20229;-89
2022/04/20 10:34:50;;;;;;;11.68;11.27;;;17.20;95.30;;;;;;5099400;28;20241;-89
2022/04/20 10:37:28;;;;;;;10.98;10.68;;;17.50;95.50;;;;;;5099115;28;20225;-88
2022/04/20 10:40:19;;;;;;;11.20;10.90;;;17.50;95.70;;;;;;5099470;28;20225;-88
2022/04/20 10:43:20;;;;;;;11.02;10.73;;;17.50;97.10;;;;;;5098157;28;20229;-89
2022/04/20 10:46:23;;;;;;;11.15;10.85;;;17.30;95.90;;;;;;5098477;28;20248;-88
2022/04/20 10:49:02;;;;;;;10.77;10.48;;;17.40;95.30;;;;;;5092464;28;20209;-89
2022/04/20 10:51:51;;;;;;;10.57;10.27;;;17.30;96.50;;;;;;5102581;28;20240;-88
2022/04/20 10:54:28;;;;;;;10.70;10.40;;;17.30;96.50;;;;;;5111715;22;20231;-83
2022/04/20 10:57:22;;;;;;;10.50;10.20;;;17.30;97.90;;;;;;5111904;28;20259;-82
2022/04/20 11:00:28;;;;;;;10.70;10.40;;;17.20;96.90;;;;;;5108375;28;20287;-82
2022/04/20 11:03:06;;;;;;;10.65;10.35;;;17.00;97.30;;;;;;5105148;28;20313;-82
2022/04/20 11:05:53;;;;;;;10.60;10.30;;;16.70;96.50;;;;;;5105276;28;20267;-84
2022/04/20 11:08:24;;;;;;;10.63;10.32;;;16.50;97.30;;;;;;5107198;28;20221;-83
2022/04/20 11:19:57;;;;;;;10.90;10.60;;;17.70;95.60;;;;;;5108602;28;20194;-83
2022/04/20 11:22:28;;;;;;;11.18;10.88;;;17.90;96.20;;;;;;5105293;28;20218;-83
2022/04/20 11:25:05;;;;;;;10.90;10.60;;;18.40;97.00;;;;;;5104079;28;20240;-82
2022/04/20 11:27:36;;;;;;;10.60;10.30;;;18.00;93.90;;;;;;5104184;28;20328;-83
2022/04/20 11:30:05;;;;;;;10.63;10.32;;;18.00;94.70;;;;;;5107287;28;20286;-82
2022/04/20 11:32:33;;;;;;;10.77;10.48;;;18.30;94.10;;;;;;5107337;28;20217;-82
2022/04/20 11:35:11;;;;;;;10.70;10.40;;;18.70;94.70;;;;;;5107580;28;20237;-82
2022/04/20 11:37:40;;;;;;;10.68;10.38;;;19.10;95.40;;;;;;5110250;28;20229;-83
2022/04/20 11:43:05;;;;;;;10.88;10.57;;;19.40;92.50;;;;;;5116176;28;20232;-83
2022/04/20 11:45:35;;;;;;;10.77;10.48;;;19.00;92.40;;;;;;5112908;28;20233;-82
2022/04/20 11:48:06;;;;;;;10.73;10.43;;;18.90;94.60;;;;;;5109827;28;20247;-83
2022/04/20 11:50:34;;;;;;;10.75;10.45;;;18.90;92.80;;;;;;5109135;28;20229;-82
2022/04/20 11:53:04;;;;;;;10.82;10.52;;;19.00;93.70;;;;;;5108615;28;20229;-83
2022/04/20 11:55:53;;;;;;;10.82;10.52;;;19.00;93.20;;;;;;5107364;28;20286;-82
2022/04/20 11:58:20;;;;;;;11.10;10.80;;;19.00;92.10;;;;;;5108939;28;20224;-82
2022/04/20 12:00:50;;;;;;;11.00;10.70;;;18.80;92.10;;;;;;5115886;28;20233;-83
2022/04/20 12:03:19;;;;;;;11.20;10.90;;;19.10;92.20;;;;;;5109188;28;20285;-83
2022/04/20 12:06:00;;;;;;;11.32;11.02;;;19.50;92.00;;;;;;5110298;28;20233;-83
2022/04/20 12:08:28;;;;;;;10.95;10.65;;;19.70;93.10;;;;;;5107616;28;20236;-82
2022/04/20 12:11:04;;;;;;;11.15;10.85;;;19.50;90.90;;;;;;5108115;28;20294;-82
2022/04/20 12:13:34;;;;;;;10.88;10.57;;;19.30;90.60;;;;;;5106792;28;20273;-82
2022/04/20 12:16:04;;;;;;;10.88;10.57;;;18.90;90.90;;;;;;5107453;28;20229;-82
2022/04/20 12:18:35;;;;;;;10.98;10.68;;;18.80;91.10;;;;;;5108259;28;20272;-82
2022/04/20 12:21:40;;;;;;;10.75;10.45;;;19.00;90.80;;;;;;5107953;28;20222;-82
2022/04/20 12:24:15;;;;;;;11.18;10.88;;;19.20;91.40;;;;;;5106930;28;20240;-83
2022/04/20 12:27:03;;;;;;;11.00;10.70;;;19.60;90.00;;;;;;5113746;28;20225;-83
2022/04/20 12:29:34;;;;;;;10.93;10.63;;;19.50;89.20;;;;;;5117670;28;20233;-84
2022/04/20 12:32:02;;;;;;;11.02;10.73;;;19.50;90.30;;;;;;5110637;28;20311;-83
2022/04/20 12:34:33;;;;;;;11.05;10.75;;;19.70;90.40;;;;;;5109390;28;20233;-84
2022/04/20 12:37:29;;;;;;;11.00;10.70;;;19.80;90.10;;;;;;5109312;28;20345;-83
2022/04/20 12:40:23;;;;;;;10.75;10.45;;;20.30;90.50;;;;;;5107041;28;20230;-84
2022/04/20 12:43:10;;;;;;;10.60;10.30;;;20.60;91.30;;;;;;5106366;28;20292;-84
2022/04/20 12:45:39;;;;;;;10.18;9.88;;;20.60;90.00;;;;;;5106627;28;20217;-83
2022/04/20 12:48:11;;;;;;;10.18;9.88;;;21.00;88.00;;;;;;5107696;28;20237;-83
2022/04/20 12:50:40;;;;;;;10.15;9.85;;;21.00;90.10;;;;;;5106918;28;20230;-84
2022/04/20 12:53:09;;;;;;;10.20;9.90;;;21.20;88.40;;;;;;5105898;28;20698;-84
2022/04/20 13:02:01;;;;;;;10.38;10.07;;;21.40;87.60;;;;;;5106899;28;20280;-83
2022/04/20 13:04:25;;;;;;;11.05;10.75;;;21.50;86.10;;;;;;5106856;28;20226;-83
2022/04/20 13:06:55;;;;;;;10.80;10.50;;;21.80;83.00;;;;;;5107372;28;20270;-83
2022/04/20 13:09:38;;;;;;;11.10;10.80;;;21.30;82.80;;;;;;5113883;28;20238;-82
2022/04/20 13:12:15;;;;;;;11.05;10.75;;;21.60;83.70;;;;;;5117231;27;20226;-84
2022/04/20 13:14:49;;;;;;;10.90;10.60;;;21.80;82.60;;;;;;5107501;28;20229;-83
2022/04/20 13:17:27;;;;;;;11.40;11.00;;;21.70;80.80;;;;;;5104440;28;20237;-83
2022/04/20 13:23:14;;;;;;;11.15;10.85;;;21.90;79.70;;;;;;5105228;28;20248;-82
2022/04/20 13:28:38;;;;;;;10.93;10.63;;;22.10;77.50;;;;;;5107078;28;20221;-84
2022/04/20 13:34:29;;;;;;;10.70;10.40;;;22.00;79.30;;;;;;5105836;28;20233;-82
2022/04/20 13:36:58;;;;;;;10.75;10.45;;;22.20;75.90;;;;;;5104727;28;20233;-83
2022/04/20 13:40:30;;;;;;;10.50;10.20;;;22.30;75.60;;;;;;5107842;28;20217;-83
2022/04/20 13:42:59;;;;;;;10.38;10.07;;;22.10;75.00;;;;;;4988493;28;20229;-82
2022/04/20 13:45:27;;;;;;;10.13;9.82;;;22.80;74.60;;;;;;5105181;28;20260;-83
2022/04/20 13:48:06;;;;;;;10.50;10.20;;;22.60;73.20;;;;;;5105144;28;20241;-83
2022/04/20 13:50:35;;;;;;;10.75;10.45;;;22.30;74.00;;;;;;5105619;28;20237;-83
2022/04/20 13:53:05;;;;;;;10.50;10.20;;;21.70;74.60;;;;;;5102911;28;20316;-82
2022/04/20 13:55:35;;;;;;;10.55;10.25;;;21.70;74.00;;;;;;5104178;28;20238;-83
2022/04/20 13:58:03;;;;;;;10.82;10.52;;;21.70;72.20;;;;;;5105117;28;20225;-83
2022/04/20 14:00:35;;;;;;;10.50;10.20;;;21.80;72.00;;;;;;5110744;28;20232;-84
2022/04/20 14:03:11;;;;;;;10.10;9.80;;;21.70;72.80;;;;;;5107453;28;20316;-84
2022/04/20 14:05:41;;;;;;;10.63;10.32;;;21.90;72.80;;;;;;5103658;28;20268;-83
2022/04/20 14:08:12;;;;;;;10.40;10.10;;;21.30;70.90;;;;;;5104243;28;20279;-83
2022/04/20 14:10:42;;;;;;;10.50;10.20;;;21.80;72.50;;;;;;5104359;28;20210;-83
2022/04/20 14:13:10;;;;;;;10.40;10.10;;;22.00;72.20;;;;;;5105450;28;20277;-83
2022/04/20 14:15:38;;;;;;;10.45;10.15;;;21.80;72.00;;;;;;5107311;28;20325;-83
2022/04/20 14:18:16;;;;;;;10.48;10.18;;;21.70;70.20;;;;;;5105418;28;20233;-83
2022/04/20 14:20:46;;;;;;;10.77;10.48;;;21.40;70.90;;;;;;5105503;28;20234;-83
2022/04/20 14:23:15;;;;;;;11.20;10.90;;;21.50;72.80;;;;;;5104744;28;20237;-83
2022/04/20 14:34:15;;;;;;;10.48;10.18;;;22.40;73.00;;;;;;5103921;28;20225;-83
2022/04/20 14:36:44;;;;;;;10.50;10.20;;;22.00;73.50;;;;;;5103750;28;20244;-84
2022/04/20 14:39:14;;;;;;;10.40;10.10;;;22.30;74.70;;;;;;5103754;28;20233;-83
2022/04/20 14:41:43;;;;;;;10.40;10.10;;;22.50;72.50;;;;;;5103364;28;20271;-82
2022/04/20 14:44:13;;;;;;;10.50;10.20;;;22.30;71.40;;;;;;5103970;28;20244;-81
2022/04/20 14:46:42;;;;;;;10.20;9.90;;;22.00;70.20;;;;;;5103842;28;20233;-82
2022/04/20 14:49:20;;;;;;;10.25;9.95;;;21.80;69.10;;;;;;5103433;28;20237;-82
2022/04/20 14:51:49;;;;;;;10.57;10.27;;;22.20;69.70;;;;;;5106084;28;20229;-82